sensor_id;sensor_type;location;lat;lon;timestamp;pressure;altitude;pressure_sealevel;temperature;humidity
46718;BME280;32448;44.960;-0.698;2024-02-04T00:01:07;103240.06;;;6.80;100.00
46718;BME280;32448;44.960;-0.698;2024-02-04T00:03:34;103232.72;;;6.74;100.00
46718;BME280;32448;44.960;-0.698;2024-02-04T00:06:01;103231.84;;;6.62;100.00
46718;BME280;32448;44.960;-0.698;2024-02-04T00:08:28;103239.53;;;6.61;100.00
46718;BME280;32448;44.960;-0.698;2024-02-04T00:10:55;103239.66;;;6.62;100.00
46718;BME280;32448;44.960;-0.698;2024-02-04T00:13:22;103248.00;;;6.58;100.00
46718;BME280;32448;44.960;-0.698;2024-02-04T00:15:50;103251.75;;;6.62;100.00
46718;BME280;32448;44.960;-0.698;2024-02-04T00:18:19;103252.06;;;6.66;100.00
46718;BME280;32448;44.960;-0.698;2024-02-04T00:20:46;103243.94;;;6.62;100.00
46718;BME280;32448;44.960;-0.698;2024-02-04T00:23:13;103239.31;;;6.57;100.00
46718;BME280;32448;44.960;-0.698;2024-02-04T00:25:40;103236.72;;;6.57;100.00
46718;BME280;32448;44.960;-0.698;2024-02-04T00:28:08;103231.16;;;6.53;100.00
46718;BME280;32448;44.960;-0.698;2024-02-04T00:30:38;103238.97;;;6.53;100.00
46718;BME280;32448;44.960;-0.698;2024-02-04T00:33:07;103239.41;;;6.59;100.00
46718;BME280;32448;44.960;-0.698;2024-02-04T00:35:34;103231.50;;;6.57;100.00
46718;BME280;32448;44.960;-0.698;2024-02-04T00:38:01;103228.13;;;6.58;100.00
46718;BME280;32448;44.960;-0.698;2024-02-04T00:40:29;103221.00;;;6.44;100.00
46718;BME280;32448;44.960;-0.698;2024-02-04T00:42:56;103214.00;;;6.43;100.00
46718;BME280;32448;44.960;-0.698;2024-02-04T00:45:23;103215.56;;;6.53;100.00
46718;BME280;32448;44.960;-0.698;2024-02-04T00:47:50;103215.69;;;6.54;100.00
46718;BME280;32448;44.960;-0.698;2024-02-04T00:50:18;103201.59;;;6.51;100.00
46718;BME280;32448;44.960;-0.698;2024-02-04T00:52:45;103199.91;;;6.51;100.00
46718;BME280;32448;44.960;-0.698;2024-02-04T00:55:12;103204.28;;;6.41;100.00
46718;BME280;32448;44.960;-0.698;2024-02-04T00:57:39;103179.47;;;6.09;100.00
46718;BME280;32448;44.960;-0.698;2024-02-04T01:00:07;103193.34;;;6.33;100.00
46718;BME280;32448;44.960;-0.698;2024-02-04T01:02:34;103205.00;;;6.38;100.00
46718;BME280;32448;44.960;-0.698;2024-02-04T01:05:01;103198.00;;;6.37;100.00
46718;BME280;32448;44.960;-0.698;2024-02-04T01:07:28;103213.22;;;6.44;100.00
46718;BME280;32448;44.960;-0.698;2024-02-04T01:09:54;103200.47;;;6.36;100.00
46718;BME280;32448;44.960;-0.698;2024-02-04T01:12:21;103213.91;;;6.42;100.00
46718;BME280;32448;44.960;-0.698;2024-02-04T01:14:48;103202.16;;;6.35;100.00
46718;BME280;32448;44.960;-0.698;2024-02-04T01:17:15;103207.38;;;6.35;100.00
46718;BME280;32448;44.960;-0.698;2024-02-04T01:19:42;103190.75;;;6.33;100.00
46718;BME280;32448;44.960;-0.698;2024-02-04T01:22:09;103197.88;;;6.36;100.00
46718;BME280;32448;44.960;-0.698;2024-02-04T01:24:36;103186.34;;;6.32;100.00
46718;BME280;32448;44.960;-0.698;2024-02-04T01:27:03;103199.56;;;6.35;100.00
46718;BME280;32448;44.960;-0.698;2024-02-04T01:29:30;103163.91;;;6.21;100.00
46718;BME280;32448;44.960;-0.698;2024-02-04T01:31:57;103194.50;;;6.37;100.00
46718;BME280;32448;44.960;-0.698;2024-02-04T01:34:24;103200.91;;;6.42;100.00
46718;BME280;32448;44.960;-0.698;2024-02-04T01:36:51;103193.25;;;6.32;100.00
46718;BME280;32448;44.960;-0.698;2024-02-04T01:39:20;103188.63;;;6.39;100.00
46718;BME280;32448;44.960;-0.698;2024-02-04T01:41:47;103191.00;;;6.36;100.00
46718;BME280;32448;44.960;-0.698;2024-02-04T01:44:14;103182.97;;;6.33;100.00
46718;BME280;32448;44.960;-0.698;2024-02-04T01:46:42;103166.94;;;6.39;100.00
46718;BME280;32448;44.960;-0.698;2024-02-04T01:49:11;103176.44;;;6.38;100.00
46718;BME280;32448;44.960;-0.698;2024-02-04T01:51:38;103173.59;;;6.35;100.00
46718;BME280;32448;44.960;-0.698;2024-02-04T01:54:06;103183.50;;;6.41;100.00
46718;BME280;32448;44.960;-0.698;2024-02-04T01:56:34;103178.31;;;6.41;100.00
46718;BME280;32448;44.960;-0.698;2024-02-04T01:59:02;103187.91;;;6.42;100.00
46718;BME280;32448;44.960;-0.698;2024-02-04T02:01:29;103183.84;;;6.45;100.00
46718;BME280;32448;44.960;-0.698;2024-02-04T02:03:57;103192.31;;;6.43;100.00
46718;BME280;32448;44.960;-0.698;2024-02-04T02:06:24;103195.28;;;6.47;100.00
46718;BME280;32448;44.960;-0.698;2024-02-04T02:08:53;103188.03;;;6.43;100.00
46718;BME280;32448;44.960;-0.698;2024-02-04T02:11:40;103190.53;;;6.42;100.00
46718;BME280;32448;44.960;-0.698;2024-02-04T02:14:14;103193.03;;;6.40;100.00
46718;BME280;32448;44.960;-0.698;2024-02-04T02:16:44;103191.09;;;6.38;100.00
46718;BME280;32448;44.960;-0.698;2024-02-04T02:21:56;103183.44;;;6.28;100.00
46718;BME280;32448;44.960;-0.698;2024-02-04T02:24:38;103175.00;;;6.18;100.00
46718;BME280;32448;44.960;-0.698;2024-02-04T02:27:06;103179.59;;;6.22;100.00
46718;BME280;32448;44.960;-0.698;2024-02-04T02:29:33;103184.44;;;6.30;100.00
46718;BME280;32448;44.960;-0.698;2024-02-04T02:32:00;103181.84;;;6.30;100.00
46718;BME280;32448;44.960;-0.698;2024-02-04T02:34:30;103183.66;;;6.31;100.00
46718;BME280;32448;44.960;-0.698;2024-02-04T02:40:29;103176.69;;;6.18;100.00
46718;BME280;32448;44.960;-0.698;2024-02-04T02:42:48;103170.22;;;6.13;100.00
46718;BME280;32448;44.960;-0.698;2024-02-04T02:45:19;103160.09;;;6.16;100.00
46718;BME280;32448;44.960;-0.698;2024-02-04T02:47:49;103157.13;;;6.11;100.00
46718;BME280;32448;44.960;-0.698;2024-02-04T02:50:16;103157.25;;;6.13;100.00
46718;BME280;32448;44.960;-0.698;2024-02-04T02:52:43;103155.78;;;6.16;100.00
46718;BME280;32448;44.960;-0.698;2024-02-04T02:55:10;103166.19;;;6.16;100.00
46718;BME280;32448;44.960;-0.698;2024-02-04T02:57:37;103163.34;;;6.13;100.00
46718;BME280;32448;44.960;-0.698;2024-02-04T03:00:04;103170.22;;;6.13;100.00
46718;BME280;32448;44.960;-0.698;2024-02-04T03:02:32;103172.47;;;6.08;100.00
46718;BME280;32448;44.960;-0.698;2024-02-04T03:04:59;103173.38;;;6.09;100.00
46718;BME280;32448;44.960;-0.698;2024-02-04T03:07:26;103161.19;;;6.08;100.00
46718;BME280;32448;44.960;-0.698;2024-02-04T03:09:53;103190.09;;;6.24;100.00
46718;BME280;32448;44.960;-0.698;2024-02-04T03:12:21;103174.75;;;6.15;100.00
46718;BME280;32448;44.960;-0.698;2024-02-04T03:14:48;103174.03;;;6.30;100.00
46718;BME280;32448;44.960;-0.698;2024-02-04T03:17:15;103189.31;;;6.13;100.00
46718;BME280;32448;44.960;-0.698;2024-02-04T03:19:48;103177.91;;;6.11;100.00
46718;BME280;32448;44.960;-0.698;2024-02-04T03:22:15;103177.47;;;6.05;100.00
46718;BME280;32448;44.960;-0.698;2024-02-04T03:24:43;103190.22;;;6.14;100.00
46718;BME280;32448;44.960;-0.698;2024-02-04T03:27:10;103190.34;;;6.04;100.00
46718;BME280;32448;44.960;-0.698;2024-02-04T03:29:37;103189.75;;;6.08;100.00
46718;BME280;32448;44.960;-0.698;2024-02-04T03:32:04;103186.03;;;6.04;100.00
46718;BME280;32448;44.960;-0.698;2024-02-04T03:34:31;103173.97;;;5.93;100.00
46718;BME280;32448;44.960;-0.698;2024-02-04T03:36:59;103184.91;;;6.01;100.00
46718;BME280;32448;44.960;-0.698;2024-02-04T03:39:26;103180.97;;;6.06;100.00
46718;BME280;32448;44.960;-0.698;2024-02-04T03:41:53;103177.34;;;5.92;100.00
46718;BME280;32448;44.960;-0.698;2024-02-04T03:44:21;103182.06;;;5.98;100.00
46718;BME280;32448;44.960;-0.698;2024-02-04T03:46:49;103188.28;;;6.00;100.00
46718;BME280;32448;44.960;-0.698;2024-02-04T03:49:17;103187.25;;;5.98;100.00
46718;BME280;32448;44.960;-0.698;2024-02-04T03:51:44;103181.50;;;5.90;100.00
46718;BME280;32448;44.960;-0.698;2024-02-04T03:54:11;103186.28;;;5.96;100.00
46718;BME280;32448;44.960;-0.698;2024-02-04T03:56:39;103183.44;;;5.93;100.00
46718;BME280;32448;44.960;-0.698;2024-02-04T03:59:07;103160.81;;;5.68;100.00
46718;BME280;32448;44.960;-0.698;2024-02-04T04:01:35;103167.16;;;5.72;100.00
46718;BME280;32448;44.960;-0.698;2024-02-04T04:04:03;103168.59;;;5.68;100.00
46718;BME280;32448;44.960;-0.698;2024-02-04T04:06:29;103166.38;;;5.73;100.00
46718;BME280;32448;44.960;-0.698;2024-02-04T04:08:56;103168.16;;;5.74;100.00
46718;BME280;32448;44.960;-0.698;2024-02-04T04:11:25;103140.06;;;5.68;100.00
46718;BME280;32448;44.960;-0.698;2024-02-04T04:13:52;103170.97;;;5.77;100.00
46718;BME280;32448;44.960;-0.698;2024-02-04T04:16:22;103168.06;;;5.84;100.00
46718;BME280;32448;44.960;-0.698;2024-02-04T04:18:49;103164.56;;;5.72;100.00
46718;BME280;32448;44.960;-0.698;2024-02-04T04:21:16;103162.41;;;5.78;100.00
46718;BME280;32448;44.960;-0.698;2024-02-04T04:23:43;103148.53;;;5.77;100.00
46718;BME280;32448;44.960;-0.698;2024-02-04T04:26:10;103147.41;;;5.74;100.00
46718;BME280;32448;44.960;-0.698;2024-02-04T04:28:37;103152.03;;;5.78;100.00
46718;BME280;32448;44.960;-0.698;2024-02-04T04:31:04;103172.13;;;5.80;100.00
46718;BME280;32448;44.960;-0.698;2024-02-04T04:33:31;103170.19;;;5.78;100.00
46718;BME280;32448;44.960;-0.698;2024-02-04T04:35:58;103164.44;;;5.82;100.00
46718;BME280;32448;44.960;-0.698;2024-02-04T04:38:25;103164.44;;;5.82;100.00
46718;BME280;32448;44.960;-0.698;2024-02-04T04:40:52;103160.16;;;5.71;100.00
46718;BME280;32448;44.960;-0.698;2024-02-04T04:43:19;103162.63;;;5.81;100.00
46718;BME280;32448;44.960;-0.698;2024-02-04T04:45:46;103143.44;;;5.67;100.00
46718;BME280;32448;44.960;-0.698;2024-02-04T04:48:13;103162.88;;;5.72;100.00
46718;BME280;32448;44.960;-0.698;2024-02-04T04:50:40;103169.94;;;5.75;100.00
46718;BME280;32448;44.960;-0.698;2024-02-04T04:53:07;103160.72;;;5.78;100.00
46718;BME280;32448;44.960;-0.698;2024-02-04T04:55:34;103174.94;;;5.72;100.00
46718;BME280;32448;44.960;-0.698;2024-02-04T04:58:01;103174.81;;;5.82;100.00
46718;BME280;32448;44.960;-0.698;2024-02-04T05:00:28;103174.47;;;5.77;100.00
46718;BME280;32448;44.960;-0.698;2024-02-04T05:02:54;103165.09;;;5.68;100.00
46718;BME280;32448;44.960;-0.698;2024-02-04T05:05:21;103182.13;;;5.76;100.00
46718;BME280;32448;44.960;-0.698;2024-02-04T05:07:48;103185.75;;;5.78;100.00
46718;BME280;32448;44.960;-0.698;2024-02-04T05:10:15;103194.09;;;5.62;100.00
46718;BME280;32448;44.960;-0.698;2024-02-04T05:12:42;103191.19;;;5.81;100.00
46718;BME280;32448;44.960;-0.698;2024-02-04T05:15:09;103187.66;;;5.69;100.00
46718;BME280;32448;44.960;-0.698;2024-02-04T05:17:36;103192.31;;;5.73;100.00
46718;BME280;32448;44.960;-0.698;2024-02-04T05:20:04;103207.75;;;5.71;100.00
46718;BME280;32448;44.960;-0.698;2024-02-04T05:22:31;103181.69;;;5.70;100.00
46718;BME280;32448;44.960;-0.698;2024-02-04T05:24:58;103199.97;;;5.71;100.00
46718;BME280;32448;44.960;-0.698;2024-02-04T05:27:25;103184.84;;;5.66;100.00
46718;BME280;32448;44.960;-0.698;2024-02-04T05:29:53;103195.09;;;5.64;100.00
46718;BME280;32448;44.960;-0.698;2024-02-04T05:32:20;103198.28;;;5.72;100.00
46718;BME280;32448;44.960;-0.698;2024-02-04T05:34:47;103194.44;;;5.78;100.00
46718;BME280;32448;44.960;-0.698;2024-02-04T05:37:14;103191.84;;;5.78;100.00
46718;BME280;32448;44.960;-0.698;2024-02-04T05:39:40;103195.81;;;5.73;100.00
46718;BME280;32448;44.960;-0.698;2024-02-04T05:42:07;103179.88;;;5.57;100.00
46718;BME280;32448;44.960;-0.698;2024-02-04T05:44:34;103186.84;;;5.58;100.00
46718;BME280;32448;44.960;-0.698;2024-02-04T05:47:01;103188.91;;;5.62;100.00
46718;BME280;32448;44.960;-0.698;2024-02-04T05:49:28;103188.44;;;5.56;100.00
46718;BME280;32448;44.960;-0.698;2024-02-04T05:51:55;103184.69;;;5.53;100.00
46718;BME280;32448;44.960;-0.698;2024-02-04T05:54:22;103182.00;;;5.51;100.00
46718;BME280;32448;44.960;-0.698;2024-02-04T05:56:49;103185.84;;;5.56;100.00
46718;BME280;32448;44.960;-0.698;2024-02-04T05:59:16;103188.75;;;5.49;100.00
46718;BME280;32448;44.960;-0.698;2024-02-04T06:01:43;103189.66;;;5.49;100.00
46718;BME280;32448;44.960;-0.698;2024-02-04T06:04:11;103168.41;;;5.32;100.00
46718;BME280;32448;44.960;-0.698;2024-02-04T06:06:38;103192.13;;;5.48;100.00
46718;BME280;32448;44.960;-0.698;2024-02-04T06:09:05;103181.88;;;5.49;100.00
46718;BME280;32448;44.960;-0.698;2024-02-04T06:11:33;103169.34;;;5.44;100.00
46718;BME280;32448;44.960;-0.698;2024-02-04T06:13:59;103174.41;;;5.42;100.00
46718;BME280;32448;44.960;-0.698;2024-02-04T06:16:26;103172.97;;;5.46;100.00
46718;BME280;32448;44.960;-0.698;2024-02-04T06:18:53;103180.38;;;5.41;100.00
46718;BME280;32448;44.960;-0.698;2024-02-04T06:21:25;103185.25;;;5.48;100.00
46718;BME280;32448;44.960;-0.698;2024-02-04T06:23:52;103195.88;;;5.52;100.00
46718;BME280;32448;44.960;-0.698;2024-02-04T06:26:18;103184.56;;;5.39;100.00
46718;BME280;32448;44.960;-0.698;2024-02-04T06:28:45;103172.81;;;5.33;100.00
46718;BME280;32448;44.960;-0.698;2024-02-04T06:31:15;103183.66;;;5.39;100.00
46718;BME280;32448;44.960;-0.698;2024-02-04T06:33:42;103165.81;;;5.32;100.00
46718;BME280;32448;44.960;-0.698;2024-02-04T06:36:10;103174.06;;;5.38;100.00
46718;BME280;32448;44.960;-0.698;2024-02-04T06:38:37;103157.34;;;5.23;100.00
46718;BME280;32448;44.960;-0.698;2024-02-04T06:41:04;103178.34;;;5.37;100.00
46718;BME280;32448;44.960;-0.698;2024-02-04T06:43:31;103176.88;;;5.29;100.00
46718;BME280;32448;44.960;-0.698;2024-02-04T06:46:02;103170.88;;;5.30;100.00
46718;BME280;32448;44.960;-0.698;2024-02-04T06:48:29;103155.75;;;5.25;100.00
46718;BME280;32448;44.960;-0.698;2024-02-04T06:50:56;103187.84;;;5.48;100.00
46718;BME280;32448;44.960;-0.698;2024-02-04T06:53:23;103175.06;;;5.28;100.00
46718;BME280;32448;44.960;-0.698;2024-02-04T06:55:50;103184.75;;;5.31;100.00
46718;BME280;32448;44.960;-0.698;2024-02-04T06:58:16;103163.41;;;5.23;100.00
46718;BME280;32448;44.960;-0.698;2024-02-04T07:00:43;103162.97;;;5.17;100.00
46718;BME280;32448;44.960;-0.698;2024-02-04T07:03:10;103196.13;;;5.33;100.00
46718;BME280;32448;44.960;-0.698;2024-02-04T07:05:37;103191.63;;;5.30;100.00
46718;BME280;32448;44.960;-0.698;2024-02-04T07:08:04;103182.34;;;5.22;100.00
46718;BME280;32448;44.960;-0.698;2024-02-04T07:10:31;103119.16;;;4.98;100.00
46718;BME280;32448;44.960;-0.698;2024-02-04T07:12:58;103209.09;;;5.33;100.00
46718;BME280;32448;44.960;-0.698;2024-02-04T07:15:25;103184.13;;;5.11;100.00
46718;BME280;32448;44.960;-0.698;2024-02-04T07:17:52;103210.78;;;5.32;100.00
46718;BME280;32448;44.960;-0.698;2024-02-04T07:20:18;103171.84;;;5.21;100.00
46718;BME280;32448;44.960;-0.698;2024-02-04T07:22:46;103210.63;;;5.41;100.00
46718;BME280;32448;44.960;-0.698;2024-02-04T07:25:13;103202.19;;;5.22;100.00
46718;BME280;32448;44.960;-0.698;2024-02-04T07:27:40;103213.19;;;5.29;100.00
46718;BME280;32448;44.960;-0.698;2024-02-04T07:30:07;103227.91;;;5.30;100.00
46718;BME280;32448;44.960;-0.698;2024-02-04T07:32:34;103202.63;;;5.16;100.00
46718;BME280;32448;44.960;-0.698;2024-02-04T07:35:05;103209.75;;;5.19;100.00
46718;BME280;32448;44.960;-0.698;2024-02-04T07:37:32;103225.25;;;5.29;100.00
46718;BME280;32448;44.960;-0.698;2024-02-04T07:40:00;103216.06;;;5.22;100.00
46718;BME280;32448;44.960;-0.698;2024-02-04T07:42:27;103222.41;;;5.26;100.00
46718;BME280;32448;44.960;-0.698;2024-02-04T07:44:54;103219.81;;;5.26;100.00
46718;BME280;32448;44.960;-0.698;2024-02-04T07:47:21;103213.59;;;5.24;100.00
46718;BME280;32448;44.960;-0.698;2024-02-04T07:49:49;103220.91;;;5.18;100.00
46718;BME280;32448;44.960;-0.698;2024-02-04T07:52:16;103200.34;;;5.09;100.00
46718;BME280;32448;44.960;-0.698;2024-02-04T07:54:43;103207.91;;;5.06;100.00
46718;BME280;32448;44.960;-0.698;2024-02-04T07:57:10;103229.16;;;5.24;100.00
46718;BME280;32448;44.960;-0.698;2024-02-04T07:59:37;103200.91;;;5.05;100.00
46718;BME280;32448;44.960;-0.698;2024-02-04T08:02:04;103234.91;;;5.31;100.00
46718;BME280;32448;44.960;-0.698;2024-02-04T08:04:33;103207.03;;;5.17;100.00
46718;BME280;32448;44.960;-0.698;2024-02-04T08:06:59;103223.19;;;5.25;100.00
46718;BME280;32448;44.960;-0.698;2024-02-04T08:09:27;103230.50;;;5.30;100.00
46718;BME280;32448;44.960;-0.698;2024-02-04T08:11:56;103241.00;;;5.32;100.00
46718;BME280;32448;44.960;-0.698;2024-02-04T08:14:25;103243.97;;;5.36;100.00
46718;BME280;32448;44.960;-0.698;2024-02-04T08:16:52;103247.59;;;5.38;100.00
46718;BME280;32448;44.960;-0.698;2024-02-04T08:19:19;103218.91;;;5.25;100.00
46718;BME280;32448;44.960;-0.698;2024-02-04T08:21:46;103224.53;;;5.31;100.00
46718;BME280;32448;44.960;-0.698;2024-02-04T08:24:13;103226.34;;;5.32;100.00
46718;BME280;32448;44.960;-0.698;2024-02-04T08:26:40;103230.75;;;5.33;100.00
46718;BME280;32448;44.960;-0.698;2024-02-04T08:29:07;103213.06;;;5.28;100.00
46718;BME280;32448;44.960;-0.698;2024-02-04T08:31:34;103239.03;;;5.39;100.00
46718;BME280;32448;44.960;-0.698;2024-02-04T08:34:01;103215.97;;;5.32;100.00
46718;BME280;32448;44.960;-0.698;2024-02-04T08:36:30;103243.78;;;5.45;100.00
46718;BME280;32448;44.960;-0.698;2024-02-04T08:38:57;103237.00;;;5.47;100.00
46718;BME280;32448;44.960;-0.698;2024-02-04T08:41:25;103203.25;;;5.35;100.00
46718;BME280;32448;44.960;-0.698;2024-02-04T08:43:52;103239.41;;;5.56;100.00
46718;BME280;32448;44.960;-0.698;2024-02-04T08:46:18;103231.47;;;5.42;100.00
46718;BME280;32448;44.960;-0.698;2024-02-04T08:48:45;103205.81;;;5.24;100.00
46718;BME280;32448;44.960;-0.698;2024-02-04T08:51:13;103253.59;;;5.49;100.00
46718;BME280;32448;44.960;-0.698;2024-02-04T08:53:40;103247.16;;;5.44;100.00
46718;BME280;32448;44.960;-0.698;2024-02-04T08:56:07;103225.44;;;5.32;100.00
46718;BME280;32448;44.960;-0.698;2024-02-04T08:58:34;103267.69;;;5.53;100.00
46718;BME280;32448;44.960;-0.698;2024-02-04T09:01:04;103279.22;;;5.56;100.00
46718;BME280;32448;44.960;-0.698;2024-02-04T09:03:32;103254.09;;;5.33;100.00
46718;BME280;32448;44.960;-0.698;2024-02-04T09:06:02;103277.34;;;5.43;100.00
46718;BME280;32448;44.960;-0.698;2024-02-04T09:08:29;103280.06;;;5.45;100.00
46718;BME280;32448;44.960;-0.698;2024-02-04T09:10:56;103280.06;;;5.45;100.00
46718;BME280;32448;44.960;-0.698;2024-02-04T09:13:23;103278.63;;;5.48;100.00
46718;BME280;32448;44.960;-0.698;2024-02-04T09:15:50;103285.25;;;5.45;100.00
46718;BME280;32448;44.960;-0.698;2024-02-04T09:18:17;103284.06;;;5.52;100.00
46718;BME280;32448;44.960;-0.698;2024-02-04T09:20:44;103289.34;;;5.53;100.00
46718;BME280;32448;44.960;-0.698;2024-02-04T09:23:12;103281.22;;;5.48;100.00
46718;BME280;32448;44.960;-0.698;2024-02-04T09:25:38;103265.91;;;5.52;100.00
46718;BME280;32448;44.960;-0.698;2024-02-04T09:28:05;103277.19;;;5.52;100.00
46718;BME280;32448;44.960;-0.698;2024-02-04T09:30:32;103276.81;;;5.47;100.00
46718;BME280;32448;44.960;-0.698;2024-02-04T09:32:59;103239.44;;;5.34;100.00
46718;BME280;32448;44.960;-0.698;2024-02-04T09:35:27;103274.09;;;5.46;100.00
46718;BME280;32448;44.960;-0.698;2024-02-04T09:37:54;103264.72;;;5.36;100.00
46718;BME280;32448;44.960;-0.698;2024-02-04T09:40:21;103278.81;;;5.62;100.00
46718;BME280;32448;44.960;-0.698;2024-02-04T09:42:49;103273.78;;;5.53;100.00
46718;BME280;32448;44.960;-0.698;2024-02-04T09:45:16;103276.56;;;5.44;100.00
46718;BME280;32448;44.960;-0.698;2024-02-04T09:47:45;103265.63;;;5.37;100.00
46718;BME280;32448;44.960;-0.698;2024-02-04T09:50:12;103268.09;;;5.35;100.00
46718;BME280;32448;44.960;-0.698;2024-02-04T09:52:48;103256.56;;;5.32;100.00
46718;BME280;32448;44.960;-0.698;2024-02-04T09:55:17;103240.41;;;5.24;100.00
46718;BME280;32448;44.960;-0.698;2024-02-04T09:57:46;103271.75;;;5.49;100.00
46718;BME280;32448;44.960;-0.698;2024-02-04T10:00:13;103282.84;;;5.58;100.00
46718;BME280;32448;44.960;-0.698;2024-02-04T10:02:41;103255.16;;;5.47;100.00
46718;BME280;32448;44.960;-0.698;2024-02-04T10:05:09;103280.16;;;5.68;100.00
46718;BME280;32448;44.960;-0.698;2024-02-04T10:07:37;103254.97;;;5.56;100.00
46718;BME280;32448;44.960;-0.698;2024-02-04T10:10:06;103267.03;;;5.55;100.00
46718;BME280;32448;44.960;-0.698;2024-02-04T10:12:34;103267.84;;;5.66;100.00
46718;BME280;32448;44.960;-0.698;2024-02-04T10:15:06;103276.69;;;5.79;100.00
46718;BME280;32448;44.960;-0.698;2024-02-04T10:17:33;103266.44;;;5.81;100.00
46718;BME280;32448;44.960;-0.698;2024-02-04T10:20:01;103258.72;;;5.59;100.00
46718;BME280;32448;44.960;-0.698;2024-02-04T10:22:28;103289.44;;;5.76;100.00
46718;BME280;32448;44.960;-0.698;2024-02-04T10:25:08;103281.06;;;5.69;100.00
46718;BME280;32448;44.960;-0.698;2024-02-04T10:27:35;103286.91;;;5.66;100.00
46718;BME280;32448;44.960;-0.698;2024-02-04T10:30:04;103289.88;;;5.71;100.00
46718;BME280;32448;44.960;-0.698;2024-02-04T10:32:31;103266.03;;;5.65;100.00
46718;BME280;32448;44.960;-0.698;2024-02-04T10:34:59;103265.94;;;5.63;100.00
46718;BME280;32448;44.960;-0.698;2024-02-04T10:37:28;103293.31;;;5.81;100.00
46718;BME280;32448;44.960;-0.698;2024-02-04T10:39:57;103306.34;;;5.93;100.00
46718;BME280;32448;44.960;-0.698;2024-02-04T10:42:26;103242.16;;;5.69;100.00
46718;BME280;32448;44.960;-0.698;2024-02-04T10:44:57;103292.78;;;5.97;100.00
46718;BME280;32448;44.960;-0.698;2024-02-04T10:47:30;103275.97;;;5.92;100.00
46718;BME280;32448;44.960;-0.698;2024-02-04T10:50:02;103281.34;;;5.83;100.00
46718;BME280;32448;44.960;-0.698;2024-02-04T10:52:36;103289.88;;;5.93;100.00
46718;BME280;32448;44.960;-0.698;2024-02-04T10:55:09;103283.53;;;5.89;100.00
46718;BME280;32448;44.960;-0.698;2024-02-04T10:57:38;103287.94;;;5.90;100.00
46718;BME280;32448;44.960;-0.698;2024-02-04T11:00:06;103284.56;;;5.91;100.00
46718;BME280;32448;44.960;-0.698;2024-02-04T11:02:40;103245.91;;;5.84;100.00
46718;BME280;32448;44.960;-0.698;2024-02-04T11:05:09;103272.34;;;5.90;100.00
46718;BME280;32448;44.960;-0.698;2024-02-04T11:07:36;103261.25;;;5.81;100.00
46718;BME280;32448;44.960;-0.698;2024-02-04T11:10:04;103280.03;;;5.89;100.00
46718;BME280;32448;44.960;-0.698;2024-02-04T11:12:33;103270.59;;;5.79;100.00
46718;BME280;32448;44.960;-0.698;2024-02-04T11:15:05;103279.13;;;5.88;100.00
46718;BME280;32448;44.960;-0.698;2024-02-04T11:24:05;103266.56;;;5.82;100.00
46718;BME280;32448;44.960;-0.698;2024-02-04T11:26:35;103267.41;;;5.93;100.00
46718;BME280;32448;44.960;-0.698;2024-02-04T11:29:08;103271.06;;;6.07;100.00
46718;BME280;32448;44.960;-0.698;2024-02-04T11:31:39;103270.34;;;6.09;100.00
46718;BME280;32448;44.960;-0.698;2024-02-04T11:34:06;103267.31;;;6.15;100.00
46718;BME280;32448;44.960;-0.698;2024-02-04T11:36:38;103274.44;;;6.17;100.00
46718;BME280;32448;44.960;-0.698;2024-02-04T11:39:13;103249.81;;;6.12;100.00
46718;BME280;32448;44.960;-0.698;2024-02-04T11:41:48;103262.94;;;6.26;100.00
46718;BME280;32448;44.960;-0.698;2024-02-04T11:44:22;103206.69;;;6.03;100.00
46718;BME280;32448;44.960;-0.698;2024-02-04T11:46:49;103248.69;;;6.32;100.00
46718;BME280;32448;44.960;-0.698;2024-02-04T11:49:18;103242.94;;;6.36;100.00
46718;BME280;32448;44.960;-0.698;2024-02-04T11:51:55;103237.38;;;6.43;100.00
46718;BME280;32448;44.960;-0.698;2024-02-04T11:54:22;103239.44;;;6.47;100.00
46718;BME280;32448;44.960;-0.698;2024-02-04T11:56:50;103237.28;;;6.42;100.00
46718;BME280;32448;44.960;-0.698;2024-02-04T11:59:25;103219.22;;;6.32;100.00
46718;BME280;32448;44.960;-0.698;2024-02-04T12:01:56;103204.88;;;6.25;100.00
46718;BME280;32448;44.960;-0.698;2024-02-04T12:04:28;103222.28;;;6.38;100.00
46718;BME280;32448;44.960;-0.698;2024-02-04T12:06:56;103224.66;;;6.35;100.00
46718;BME280;32448;44.960;-0.698;2024-02-04T12:09:24;103212.44;;;6.34;100.00
46718;BME280;32448;44.960;-0.698;2024-02-04T12:11:51;103209.28;;;6.26;100.00
46718;BME280;32448;44.960;-0.698;2024-02-04T12:14:19;103218.00;;;6.27;100.00
46718;BME280;32448;44.960;-0.698;2024-02-04T12:16:47;103200.00;;;6.30;100.00
46718;BME280;32448;44.960;-0.698;2024-02-04T12:19:15;103207.00;;;6.31;100.00
46718;BME280;32448;44.960;-0.698;2024-02-04T12:21:42;103210.50;;;6.43;100.00
46718;BME280;32448;44.960;-0.698;2024-02-04T12:24:09;103210.06;;;6.37;100.00
46718;BME280;32448;44.960;-0.698;2024-02-04T12:26:38;103208.50;;;6.27;100.00
46718;BME280;32448;44.960;-0.698;2024-02-04T12:29:06;103213.00;;;6.30;100.00
46718;BME280;32448;44.960;-0.698;2024-02-04T12:31:34;103204.66;;;6.34;100.00
46718;BME280;32448;44.960;-0.698;2024-02-04T12:34:01;103198.22;;;6.40;100.00
46718;BME280;32448;44.960;-0.698;2024-02-04T12:36:30;103200.00;;;6.41;100.00
46718;BME280;32448;44.960;-0.698;2024-02-04T12:38:59;103200.59;;;6.49;100.00
46718;BME280;32448;44.960;-0.698;2024-02-04T12:41:36;103213.69;;;6.50;100.00
46718;BME280;32448;44.960;-0.698;2024-02-04T12:44:03;103170.78;;;6.32;100.00
46718;BME280;32448;44.960;-0.698;2024-02-04T12:46:31;103205.06;;;6.63;100.00
46718;BME280;32448;44.960;-0.698;2024-02-04T12:48:58;103180.34;;;6.56;100.00
46718;BME280;32448;44.960;-0.698;2024-02-04T12:51:32;103181.66;;;6.63;100.00
46718;BME280;32448;44.960;-0.698;2024-02-04T12:54:07;103177.19;;;6.61;100.00
46718;BME280;32448;44.960;-0.698;2024-02-04T12:56:53;103188.63;;;6.76;100.00